Time;durP1;ratioP1;P1;durP2;ratioP2;P2;SDS_P1;SDS_P2;PMS_P1;PMS_P2;Temp;Humidity;BMP_temperature;BMP_pressure;BME280_temperature;BME280_humidity;BME280_pressure;Samples;Min_cycle;Max_cycle;Signal;HPM_P1;HPM_P2
2023/09/30 00:01:15;;;;;;;14.57;8.43;;;19.20;78.40;;;;;;5061574;28;20343;-62
2023/09/30 00:03:42;;;;;;;10.43;9.30;;;19.20;78.70;;;;;;5051882;28;20621;-61
2023/09/30 00:06:09;;;;;;;12.97;8.77;;;19.10;78.80;;;;;;5051195;28;20212;-62
2023/09/30 00:08:39;;;;;;;9.67;8.63;;;19.10;79.00;;;;;;5054692;28;20197;-62
2023/09/30 00:11:06;;;;;;;12.97;8.50;;;19.00;79.10;;;;;;5055786;28;21001;-62
2023/09/30 00:13:33;;;;;;;10.00;8.30;;;19.00;79.20;;;;;;5053550;28;20209;-62
2023/09/30 00:16:00;;;;;;;10.57;8.87;;;18.90;79.10;;;;;;5052613;28;20219;-62
2023/09/30 00:18:27;;;;;;;12.93;9.07;;;18.90;79.20;;;;;;5059753;28;20265;-61
2023/09/30 00:20:54;;;;;;;14.20;9.40;;;18.90;79.10;;;;;;5048080;28;20185;-62
2023/09/30 00:23:21;;;;;;;11.03;9.93;;;18.90;79.00;;;;;;5053806;28;20202;-61
2023/09/30 00:25:51;;;;;;;16.77;9.30;;;18.90;78.90;;;;;;5055361;28;20214;-61
2023/09/30 00:28:19;;;;;;;10.83;8.93;;;18.90;78.70;;;;;;5048413;28;20206;-62
2023/09/30 00:30:47;;;;;;;13.90;9.20;;;18.90;78.70;;;;;;5055904;28;20733;-62
2023/09/30 00:33:14;;;;;;;12.43;9.57;;;18.90;78.60;;;;;;5057731;28;20213;-62
2023/09/30 00:35:41;;;;;;;12.93;9.70;;;18.90;78.60;;;;;;5059008;28;20218;-62
2023/09/30 00:38:10;;;;;;;13.57;10.37;;;18.90;78.50;;;;;;5045358;28;20423;-62
2023/09/30 00:40:37;;;;;;;14.30;10.10;;;19.00;78.60;;;;;;5041874;28;20300;-62
2023/09/30 00:43:04;;;;;;;12.77;10.33;;;18.90;78.50;;;;;;5052964;28;20200;-62
2023/09/30 00:45:32;;;;;;;14.30;10.37;;;18.90;78.70;;;;;;5053405;28;20205;-62
2023/09/30 00:48:00;;;;;;;11.47;10.10;;;18.90;78.80;;;;;;5050466;28;20226;-62
2023/09/30 00:50:28;;;;;;;12.70;10.27;;;18.90;78.90;;;;;;5057444;28;20543;-62
2023/09/30 00:52:55;;;;;;;13.23;10.23;;;18.90;79.00;;;;;;5066902;28;20297;-62
2023/09/30 00:55:23;;;;;;;14.57;10.60;;;18.90;79.00;;;;;;5065390;28;20658;-62
2023/09/30 00:57:50;;;;;;;10.97;9.80;;;18.90;79.10;;;;;;5064850;28;20202;-61
2023/09/30 01:00:19;;;;;;;13.50;10.63;;;18.90;79.10;;;;;;5061417;28;20268;-61
2023/09/30 01:02:46;;;;;;;15.17;11.97;;;18.90;79.00;;;;;;5062636;28;20740;-61
2023/09/30 01:05:13;;;;;;;15.20;10.53;;;18.90;79.00;;;;;;5064615;28;20220;-62
2023/09/30 01:07:40;;;;;;;14.57;10.93;;;18.90;78.90;;;;;;5057841;28;20208;-62
2023/09/30 01:10:08;;;;;;;13.50;10.63;;;18.80;78.90;;;;;;5069263;28;20220;-61
2023/09/30 01:12:35;;;;;;;16.50;10.57;;;18.80;79.20;;;;;;5061961;28;20205;-62
2023/09/30 01:15:04;;;;;;;16.93;11.37;;;18.80;79.50;;;;;;5063699;28;20217;-62
2023/09/30 01:17:34;;;;;;;13.73;11.30;;;18.70;79.70;;;;;;5061470;28;20794;-62
2023/09/30 01:20:05;;;;;;;12.40;10.80;;;18.70;80.00;;;;;;5063799;28;20204;-62
2023/09/30 01:22:33;;;;;;;17.97;13.23;;;18.70;80.10;;;;;;5061349;28;20192;-62
2023/09/30 01:25:00;;;;;;;13.37;11.70;;;18.60;80.00;;;;;;5060368;28;20219;-61
2023/09/30 01:27:27;;;;;;;13.17;11.93;;;18.60;80.00;;;;;;5064129;28;20198;-61
2023/09/30 01:29:54;;;;;;;15.23;11.37;;;18.60;80.20;;;;;;5062033;28;20647;-62
2023/09/30 01:32:21;;;;;;;14.60;11.97;;;18.60;80.20;;;;;;5064409;28;20298;-62
2023/09/30 01:34:48;;;;;;;15.63;11.97;;;18.60;80.40;;;;;;5061412;28;20711;-62
2023/09/30 01:37:15;;;;;;;14.07;12.30;;;18.60;80.50;;;;;;5062049;28;20189;-61
2023/09/30 01:39:44;;;;;;;17.00;11.50;;;18.60;80.40;;;;;;5058513;28;20601;-61
2023/09/30 01:42:11;;;;;;;16.73;12.77;;;18.60;80.30;;;;;;5064793;28;20200;-62
2023/09/30 01:44:39;;;;;;;15.20;11.07;;;18.60;80.30;;;;;;5061795;28;20197;-62
2023/09/30 01:47:05;;;;;;;14.53;10.77;;;18.60;80.30;;;;;;5063280;28;20695;-62
2023/09/30 01:49:33;;;;;;;12.43;11.13;;;18.60;80.40;;;;;;5063151;28;20203;-62
2023/09/30 01:51:59;;;;;;;13.37;11.60;;;18.60;80.30;;;;;;5066307;28;20216;-62
2023/09/30 01:54:26;;;;;;;19.07;11.97;;;18.60;80.20;;;;;;5061198;28;20198;-62
2023/09/30 01:56:54;;;;;;;15.13;11.77;;;18.50;80.10;;;;;;5067335;28;20225;-62
2023/09/30 01:59:21;;;;;;;15.67;11.00;;;18.50;80.10;;;;;;5062517;28;20224;-62
2023/09/30 02:01:49;;;;;;;15.17;11.43;;;18.50;80.20;;;;;;5065300;28;20200;-61
2023/09/30 02:04:17;;;;;;;15.67;11.43;;;18.50;80.30;;;;;;5052771;28;20203;-62
2023/09/30 02:06:44;;;;;;;16.80;11.87;;;18.50;80.40;;;;;;5054866;28;20617;-62
2023/09/30 02:09:11;;;;;;;15.67;11.23;;;18.50;80.50;;;;;;5055595;28;20192;-62
2023/09/30 02:11:41;;;;;;;17.53;12.03;;;18.40;80.50;;;;;;5060049;28;20202;-62
2023/09/30 02:14:11;;;;;;;14.47;11.90;;;18.40;80.50;;;;;;5063486;28;20234;-62
2023/09/30 02:16:39;;;;;;;15.67;11.70;;;18.40;80.50;;;;;;5046098;28;20254;-62
2023/09/30 02:19:06;;;;;;;19.23;12.60;;;18.40;80.60;;;;;;5055251;28;20283;-61
2023/09/30 02:21:33;;;;;;;16.33;11.20;;;18.40;80.70;;;;;;5045482;28;20206;-61
2023/09/30 02:24:00;;;;;;;11.60;10.40;;;18.40;80.80;;;;;;5052575;28;20207;-61
2023/09/30 02:26:29;;;;;;;13.63;12.23;;;18.40;80.90;;;;;;5059303;28;20208;-61
2023/09/30 02:28:56;;;;;;;14.60;12.63;;;18.30;81.00;;;;;;5060925;28;20199;-62
2023/09/30 02:31:23;;;;;;;16.47;11.67;;;18.30;81.10;;;;;;5059397;28;20192;-62
2023/09/30 02:33:51;;;;;;;14.00;12.37;;;18.20;81.20;;;;;;5068832;28;20218;-62
2023/09/30 02:36:18;;;;;;;15.20;12.03;;;18.20;81.30;;;;;;5046844;28;20212;-62
2023/09/30 02:38:46;;;;;;;17.93;13.73;;;18.20;81.30;;;;;;5049179;28;20204;-62
2023/09/30 02:41:14;;;;;;;16.87;13.37;;;18.20;81.30;;;;;;5057426;28;20205;-61
2023/09/30 02:43:42;;;;;;;15.47;13.87;;;18.10;81.20;;;;;;5054631;28;20270;-62
2023/09/30 02:46:09;;;;;;;16.07;12.97;;;18.10;81.20;;;;;;5057946;28;20582;-62
2023/09/30 02:48:37;;;;;;;15.43;13.27;;;18.10;81.40;;;;;;5053298;28;20228;-61
2023/09/30 02:51:04;;;;;;;15.20;12.80;;;18.00;81.70;;;;;;5068086;28;20532;-61
2023/09/30 02:53:31;;;;;;;14.93;13.50;;;17.90;81.80;;;;;;5052688;28;20592;-62
2023/09/30 02:55:59;;;;;;;15.43;13.83;;;17.90;82.00;;;;;;5049509;28;20285;-62
2023/09/30 02:58:27;;;;;;;16.97;12.50;;;17.90;82.10;;;;;;5055671;28;20501;-61
2023/09/30 03:00:54;;;;;;;17.17;13.17;;;17.80;82.10;;;;;;5059162;28;20239;-62
2023/09/30 03:03:21;;;;;;;19.47;13.60;;;17.80;82.40;;;;;;5059961;28;20531;-61
2023/09/30 03:05:50;;;;;;;17.37;13.63;;;17.80;82.60;;;;;;5066783;28;20573;-61
2023/09/30 03:08:17;;;;;;;20.10;14.03;;;17.70;82.80;;;;;;5056536;28;20212;-62
2023/09/30 03:10:44;;;;;;;19.83;13.93;;;17.70;83.00;;;;;;5043710;28;20229;-61
2023/09/30 03:13:11;;;;;;;14.50;12.23;;;17.70;83.20;;;;;;5052778;28;20208;-62
2023/09/30 03:15:39;;;;;;;16.47;14.13;;;17.70;83.30;;;;;;5054668;28;20210;-62
2023/09/30 03:18:06;;;;;;;15.50;13.90;;;17.70;83.50;;;;;;5056502;28;20199;-61
2023/09/30 03:20:33;;;;;;;15.83;14.20;;;17.60;83.50;;;;;;5047429;28;20260;-62
2023/09/30 03:23:01;;;;;;;16.53;13.83;;;17.60;83.60;;;;;;5057358;28;20199;-62
2023/09/30 03:25:30;;;;;;;17.60;14.57;;;17.60;83.70;;;;;;5056119;28;20217;-61
2023/09/30 03:27:57;;;;;;;15.43;13.57;;;17.60;83.80;;;;;;5051638;28;20277;-61
2023/09/30 03:30:24;;;;;;;20.60;14.37;;;17.60;83.80;;;;;;5053907;28;20204;-62
2023/09/30 03:32:51;;;;;;;22.43;14.70;;;17.60;83.80;;;;;;5060716;28;20281;-62
2023/09/30 03:35:18;;;;;;;24.73;15.60;;;17.60;84.00;;;;;;5064587;28;20622;-61
2023/09/30 03:37:47;;;;;;;22.77;16.43;;;17.50;84.00;;;;;;5060118;28;20188;-62
2023/09/30 03:40:18;;;;;;;16.53;14.93;;;17.50;84.10;;;;;;5060277;28;20212;-62
2023/09/30 03:42:49;;;;;;;18.97;15.63;;;17.60;84.10;;;;;;5054860;28;20211;-62
2023/09/30 03:45:18;;;;;;;16.63;14.77;;;17.50;84.00;;;;;;5060326;28;20310;-62
2023/09/30 03:47:47;;;;;;;19.30;16.63;;;17.50;84.00;;;;;;5060110;28;20195;-61
2023/09/30 03:50:15;;;;;;;17.70;15.47;;;17.50;84.00;;;;;;5062838;28;20207;-62
2023/09/30 03:52:47;;;;;;;21.53;15.67;;;17.50;83.90;;;;;;5055188;28;20212;-61
2023/09/30 03:55:20;;;;;;;18.07;15.97;;;17.40;84.00;;;;;;5061020;28;20290;-62
2023/09/30 03:57:49;;;;;;;16.60;14.83;;;17.40;84.30;;;;;;5058373;28;20637;-62
2023/09/30 04:00:18;;;;;;;19.20;15.57;;;17.40;84.50;;;;;;5061273;28;20227;-62
2023/09/30 04:02:49;;;;;;;20.23;16.77;;;17.40;84.60;;;;;;5057635;28;20220;-61
2023/09/30 04:05:18;;;;;;;19.97;16.90;;;17.40;84.70;;;;;;5060919;28;20257;-61
2023/09/30 04:07:46;;;;;;;26.27;16.60;;;17.40;84.80;;;;;;5059431;28;20252;-62
2023/09/30 04:10:14;;;;;;;24.27;16.53;;;17.40;84.70;;;;;;5053679;28;20281;-61
2023/09/30 04:12:41;;;;;;;18.80;16.43;;;17.40;84.70;;;;;;5052022;28;20218;-62
2023/09/30 04:15:11;;;;;;;19.37;16.70;;;17.40;84.70;;;;;;5059865;28;20705;-62
2023/09/30 04:17:39;;;;;;;21.43;16.77;;;17.30;84.60;;;;;;5056156;28;20212;-62
2023/09/30 04:20:15;;;;;;;20.83;16.03;;;17.30;84.70;;;;;;5054101;28;20203;-62
2023/09/30 04:22:48;;;;;;;20.10;16.27;;;17.30;84.90;;;;;;5056700;28;20207;-62
2023/09/30 04:25:17;;;;;;;21.27;17.07;;;17.30;85.00;;;;;;5055080;28;20196;-62
2023/09/30 04:27:47;;;;;;;20.80;17.83;;;17.20;85.00;;;;;;5056261;28;20198;-62
2023/09/30 04:30:16;;;;;;;20.87;17.57;;;17.30;85.10;;;;;;5054720;28;20225;-61
2023/09/30 04:32:43;;;;;;;20.37;16.40;;;17.20;85.10;;;;;;5054459;28;20950;-61
2023/09/30 04:35:11;;;;;;;23.00;17.40;;;17.20;85.20;;;;;;5052497;28;20229;-61
2023/09/30 04:37:38;;;;;;;19.77;16.47;;;17.20;85.30;;;;;;5057061;28;20280;-61
2023/09/30 04:40:19;;;;;;;22.37;17.27;;;17.20;85.40;;;;;;5049912;28;20256;-61
2023/09/30 04:42:48;;;;;;;23.30;17.20;;;17.20;85.40;;;;;;5048864;28;20198;-61
2023/09/30 04:45:16;;;;;;;19.50;15.97;;;17.20;85.40;;;;;;5056854;28;20282;-61
2023/09/30 04:47:48;;;;;;;18.90;16.80;;;17.20;85.40;;;;;;5057050;28;20236;-62
2023/09/30 04:50:16;;;;;;;18.90;16.93;;;17.20;85.40;;;;;;5061463;28;20283;-62
2023/09/30 04:52:45;;;;;;;21.47;17.43;;;17.20;85.50;;;;;;5052003;28;20646;-62
2023/09/30 04:55:15;;;;;;;20.43;17.80;;;17.20;85.50;;;;;;5049364;28;20224;-61
2023/09/30 04:57:47;;;;;;;21.93;18.00;;;17.20;85.40;;;;;;5049050;28;20215;-62
2023/09/30 05:00:21;;;;;;;21.10;17.10;;;17.20;85.40;;;;;;5050793;28;20349;-62
2023/09/30 05:02:48;;;;;;;22.07;18.37;;;17.20;85.60;;;;;;5054834;28;20275;-62
2023/09/30 05:05:16;;;;;;;21.07;18.27;;;17.20;85.70;;;;;;5057441;28;20208;-63
2023/09/30 05:07:43;;;;;;;20.40;18.23;;;17.20;85.70;;;;;;5050715;28;20272;-62
2023/09/30 05:10:13;;;;;;;19.30;16.73;;;17.20;85.70;;;;;;5054759;28;20589;-62
2023/09/30 05:12:45;;;;;;;22.97;16.77;;;17.20;85.70;;;;;;5043859;28;20203;-61
2023/09/30 05:15:19;;;;;;;24.00;18.70;;;17.20;85.70;;;;;;5050645;28;20202;-62
2023/09/30 05:17:47;;;;;;;20.57;17.27;;;17.10;85.70;;;;;;5052296;28;20228;-61
2023/09/30 05:20:17;;;;;;;19.80;17.70;;;17.10;85.90;;;;;;5059027;28;20673;-62
2023/09/30 05:22:45;;;;;;;21.07;18.07;;;17.10;86.00;;;;;;5053946;28;20204;-62
2023/09/30 05:25:16;;;;;;;19.90;17.77;;;17.10;86.10;;;;;;5050191;28;20226;-61
2023/09/30 05:27:44;;;;;;;23.33;18.23;;;17.10;86.20;;;;;;5053426;28;20512;-62
2023/09/30 05:30:12;;;;;;;20.57;18.47;;;17.10;86.30;;;;;;5046741;28;20214;-62
2023/09/30 05:32:39;;;;;;;28.87;19.60;;;17.20;86.40;;;;;;5047395;28;20213;-62
2023/09/30 05:35:13;;;;;;;23.23;16.60;;;17.10;86.40;;;;;;5056161;28;20204;-62
2023/09/30 05:37:42;;;;;;;18.80;16.80;;;17.20;86.50;;;;;;5057969;28;20207;-62
2023/09/30 05:40:21;;;;;;;22.93;18.03;;;17.20;86.50;;;;;;5062845;28;20229;-62
2023/09/30 05:42:54;;;;;;;21.63;17.67;;;17.20;86.50;;;;;;5053923;28;20203;-62
2023/09/30 05:45:26;;;;;;;26.67;18.07;;;17.40;86.70;;;;;;5051224;28;20265;-62
2023/09/30 05:47:56;;;;;;;18.60;16.47;;;17.60;86.30;;;;;;5051962;28;20217;-62
2023/09/30 05:50:24;;;;;;;22.97;16.53;;;17.80;85.60;;;;;;5055726;28;20692;-62
2023/09/30 05:52:53;;;;;;;19.63;16.60;;;18.10;84.40;;;;;;5054614;28;20226;-62
2023/09/30 05:55:21;;;;;;;26.77;15.47;;;18.30;83.40;;;;;;5062918;28;20206;-62
2023/09/30 05:57:49;;;;;;;23.20;16.07;;;18.40;82.80;;;;;;5065454;28;20221;-62
2023/09/30 06:00:20;;;;;;;20.90;15.63;;;18.30;82.80;;;;;;5044394;28;20553;-62
2023/09/30 06:02:48;;;;;;;17.33;15.17;;;18.20;83.00;;;;;;5054721;28;20192;-62
2023/09/30 06:05:16;;;;;;;19.60;16.10;;;18.10;83.40;;;;;;5051526;28;20199;-62
2023/09/30 06:07:45;;;;;;;24.20;16.17;;;18.00;83.70;;;;;;5065911;28;20207;-62
2023/09/30 06:10:18;;;;;;;17.70;14.30;;;17.90;83.80;;;;;;5063145;28;20207;-62
2023/09/30 06:12:48;;;;;;;21.60;16.07;;;17.80;84.00;;;;;;5064355;28;20225;-62
2023/09/30 06:15:21;;;;;;;18.90;15.23;;;17.80;84.30;;;;;;5059033;28;20209;-61
2023/09/30 06:17:52;;;;;;;19.60;15.30;;;17.70;84.50;;;;;;5058357;28;20224;-62
2023/09/30 06:20:22;;;;;;;17.50;14.00;;;17.70;84.60;;;;;;5058361;28;20183;-62
2023/09/30 06:22:49;;;;;;;17.20;14.27;;;17.70;84.70;;;;;;5065229;28;20543;-62
2023/09/30 06:25:18;;;;;;;19.27;13.30;;;17.70;84.90;;;;;;5063169;28;20288;-62
2023/09/30 06:27:47;;;;;;;16.10;14.03;;;17.70;85.10;;;;;;5061821;28;20279;-61
2023/09/30 06:30:21;;;;;;;16.67;15.03;;;17.70;85.40;;;;;;5064289;28;20550;-61
2023/09/30 06:32:49;;;;;;;20.93;13.97;;;17.70;85.70;;;;;;5057187;28;20288;-62
2023/09/30 06:35:16;;;;;;;16.30;13.87;;;17.70;85.80;;;;;;5062038;28;20213;-62
2023/09/30 06:37:47;;;;;;;16.93;15.13;;;17.70;86.00;;;;;;5064928;28;20229;-62
2023/09/30 06:40:14;;;;;;;21.53;14.43;;;17.70;86.20;;;;;;5056707;28;20199;-61
2023/09/30 06:42:42;;;;;;;19.73;13.83;;;17.90;86.10;;;;;;5059888;28;20211;-62
2023/09/30 06:45:10;;;;;;;21.50;14.70;;;17.90;86.60;;;;;;5057603;28;20584;-62
2023/09/30 06:47:39;;;;;;;19.50;15.03;;;18.00;86.00;;;;;;5064873;28;20213;-62
2023/09/30 06:50:12;;;;;;;16.03;14.07;;;18.10;85.90;;;;;;5049183;28;20630;-62
2023/09/30 06:52:41;;;;;;;19.27;14.63;;;18.30;85.80;;;;;;5059771;28;20205;-62
2023/09/30 06:55:09;;;;;;;17.50;13.63;;;18.40;85.60;;;;;;5061552;28;20341;-61
2023/09/30 06:57:37;;;;;;;16.43;13.37;;;18.50;85.30;;;;;;5062316;28;20226;-62
2023/09/30 07:00:12;;;;;;;17.93;13.80;;;18.60;84.90;;;;;;5060372;28;20236;-61
2023/09/30 07:02:41;;;;;;;14.33;12.80;;;18.70;84.60;;;;;;5058869;28;20260;-62
2023/09/30 07:05:11;;;;;;;20.23;13.43;;;18.80;84.20;;;;;;5060339;28;20221;-62
2023/09/30 07:07:45;;;;;;;15.23;13.20;;;19.00;83.90;;;;;;5057680;28;20235;-61
2023/09/30 07:10:12;;;;;;;16.13;13.00;;;19.00;83.40;;;;;;5054570;28;20209;-61
2023/09/30 07:12:41;;;;;;;16.33;13.40;;;19.10;83.10;;;;;;5052583;28;20214;-62
2023/09/30 07:15:08;;;;;;;17.10;13.10;;;19.20;82.90;;;;;;5055608;28;20672;-62
2023/09/30 07:17:36;;;;;;;14.27;12.50;;;19.40;82.70;;;;;;5054751;28;20210;-62
2023/09/30 07:20:04;;;;;;;16.77;13.20;;;19.50;82.50;;;;;;5060615;28;20201;-62
2023/09/30 07:22:35;;;;;;;22.57;13.03;;;19.60;82.30;;;;;;5054999;28;20261;-62
2023/09/30 07:25:23;;;;;;;15.90;13.00;;;19.80;82.10;;;;;;5056354;28;20225;-62
2023/09/30 07:27:50;;;;;;;15.37;12.57;;;20.00;82.00;;;;;;5051732;28;20209;-62
2023/09/30 07:30:17;;;;;;;14.67;12.40;;;20.10;81.60;;;;;;5054380;28;20207;-62
2023/09/30 07:32:46;;;;;;;12.97;11.17;;;20.40;81.20;;;;;;5058952;28;20476;-62
2023/09/30 07:35:15;;;;;;;15.20;11.30;;;20.50;80.60;;;;;;5059435;28;20652;-62
2023/09/30 07:37:43;;;;;;;17.17;11.43;;;20.80;80.00;;;;;;5055097;28;20253;-62
2023/09/30 07:40:11;;;;;;;12.37;10.03;;;21.00;79.40;;;;;;5049272;28;20530;-62
2023/09/30 07:42:39;;;;;;;15.83;9.87;;;21.30;78.60;;;;;;5048312;28;20203;-62
2023/09/30 07:45:07;;;;;;;14.50;10.27;;;21.50;78.20;;;;;;5053181;28;20210;-62
2023/09/30 07:47:34;;;;;;;13.33;9.20;;;21.70;76.40;;;;;;5053749;28;20216;-62
2023/09/30 07:50:09;;;;;;;10.87;9.70;;;21.90;75.90;;;;;;5061893;28;20289;-62
2023/09/30 07:52:39;;;;;;;11.53;8.93;;;22.10;75.20;;;;;;5063851;28;20244;-62
2023/09/30 07:55:08;;;;;;;10.00;8.73;;;22.30;74.20;;;;;;5060616;28;20198;-62
2023/09/30 07:57:36;;;;;;;16.40;9.80;;;22.60;73.60;;;;;;5054859;28;20226;-62
2023/09/30 08:00:25;;;;;;;13.67;9.80;;;22.80;72.80;;;;;;5046605;28;20234;-62
2023/09/30 08:02:51;;;;;;;14.87;8.90;;;23.00;72.00;;;;;;5052357;28;20205;-62
2023/09/30 08:05:18;;;;;;;11.93;9.53;;;23.20;71.20;;;;;;5049340;28;20194;-62
2023/09/30 08:07:46;;;;;;;25.40;10.40;;;23.30;70.30;;;;;;5053300;28;20285;-62
2023/09/30 08:10:16;;;;;;;14.30;9.20;;;23.50;69.70;;;;;;5064626;28;20213;-62
2023/09/30 08:12:48;;;;;;;15.33;9.17;;;23.70;69.20;;;;;;5063748;28;20203;-62
2023/09/30 08:15:15;;;;;;;17.50;9.50;;;23.80;68.20;;;;;;5048844;28;20221;-62
2023/09/30 08:17:42;;;;;;;16.60;10.80;;;24.00;68.00;;;;;;5049060;28;20225;-62
2023/09/30 08:20:10;;;;;;;15.23;9.37;;;24.10;66.80;;;;;;5051877;28;20198;-62
2023/09/30 08:22:38;;;;;;;16.23;9.73;;;24.20;66.20;;;;;;5058299;28;20263;-62
2023/09/30 08:25:06;;;;;;;12.10;9.00;;;24.30;65.60;;;;;;5051585;28;20229;-61
2023/09/30 08:27:34;;;;;;;13.60;8.30;;;24.30;65.40;;;;;;5057238;28;20544;-62
2023/09/30 08:30:04;;;;;;;8.73;7.63;;;24.40;65.60;;;;;;5052747;28;20218;-62
2023/09/30 08:32:37;;;;;;;12.13;8.90;;;24.60;65.80;;;;;;5049348;28;20251;-62
2023/09/30 08:35:06;;;;;;;11.20;8.30;;;24.70;65.10;;;;;;5051501;28;20217;-62
2023/09/30 08:37:33;;;;;;;11.93;8.23;;;24.80;64.90;;;;;;5051550;28;20727;-62
2023/09/30 08:40:01;;;;;;;16.13;9.10;;;24.90;64.70;;;;;;5050636;28;20209;-62
2023/09/30 08:42:32;;;;;;;11.37;7.90;;;25.00;64.40;;;;;;5050688;28;20536;-62
2023/09/30 08:45:00;;;;;;;11.63;7.00;;;25.20;63.50;;;;;;5052553;28;20702;-62
2023/09/30 08:47:28;;;;;;;10.77;7.47;;;25.40;63.50;;;;;;5055852;28;20296;-62
2023/09/30 08:50:05;;;;;;;11.33;6.50;;;25.50;63.20;;;;;;5056736;28;20602;-62
2023/09/30 08:52:34;;;;;;;9.13;6.67;;;25.70;63.00;;;;;;5053405;28;20212;-62
2023/09/30 08:55:13;;;;;;;8.83;7.63;;;25.90;62.70;;;;;;5055245;28;20205;-59
2023/09/30 08:57:43;;;;;;;10.70;7.60;;;26.10;62.20;;;;;;5050786;28;20211;-62
2023/09/30 09:00:12;;;;;;;7.67;6.53;;;26.30;61.70;;;;;;5053064;28;20242;-62
2023/09/30 09:02:41;;;;;;;9.23;6.50;;;26.40;60.90;;;;;;5054200;28;20204;-59
2023/09/30 09:05:09;;;;;;;8.50;7.50;;;26.50;59.50;;;;;;5057620;28;20206;-59
2023/09/30 09:07:36;;;;;;;13.07;7.20;;;26.60;59.20;;;;;;5054289;28;20296;-60
2023/09/30 09:10:05;;;;;;;11.73;7.50;;;26.50;59.50;;;;;;5056615;28;20254;-59
2023/09/30 09:12:34;;;;;;;10.10;7.40;;;26.60;59.30;;;;;;5052997;28;20609;-59
2023/09/30 09:15:02;;;;;;;10.13;7.17;;;26.60;59.10;;;;;;5058441;28;20285;-60
2023/09/30 09:17:44;;;;;;;8.33;7.27;;;26.60;59.30;;;;;;5056124;28;20561;-59
2023/09/30 09:20:19;;;;;;;15.43;8.40;;;26.60;59.50;;;;;;5060604;28;20201;-60
2023/09/30 09:22:53;;;;;;;8.17;7.37;;;26.70;59.40;;;;;;5053283;28;20197;-60
2023/09/30 09:25:24;;;;;;;13.67;8.17;;;26.70;58.50;;;;;;5052298;28;20293;-60
2023/09/30 09:27:53;;;;;;;12.53;7.77;;;26.70;58.70;;;;;;5060338;28;20213;-60
2023/09/30 09:30:22;;;;;;;13.37;7.40;;;26.60;58.60;;;;;;5056761;28;20214;-60
2023/09/30 09:32:54;;;;;;;16.47;7.17;;;26.60;58.30;;;;;;5057584;28;20281;-60
2023/09/30 09:35:22;;;;;;;13.27;7.43;;;26.60;58.50;;;;;;5061134;28;20213;-60
2023/09/30 09:38:01;;;;;;;14.00;9.37;;;26.50;58.80;;;;;;5057904;28;20214;-60
2023/09/30 09:40:30;;;;;;;11.00;7.50;;;26.60;58.70;;;;;;5042393;28;20231;-60
2023/09/30 09:42:59;;;;;;;12.37;8.30;;;26.70;58.90;;;;;;5056399;28;20226;-60
2023/09/30 09:45:27;;;;;;;14.67;7.57;;;26.90;58.70;;;;;;5055191;28;20260;-60
2023/09/30 09:47:54;;;;;;;12.07;7.90;;;27.10;58.70;;;;;;5054375;28;20217;-60
2023/09/30 09:50:23;;;;;;;9.50;6.97;;;27.30;58.40;;;;;;5060748;28;20220;-60
2023/09/30 09:52:54;;;;;;;11.17;7.27;;;27.50;58.40;;;;;;5062868;28;20281;-60
2023/09/30 09:55:23;;;;;;;14.60;8.77;;;27.70;57.80;;;;;;5059983;28;20228;-60
2023/09/30 09:57:51;;;;;;;9.33;7.43;;;27.90;57.40;;;;;;5056865;28;20690;-60
2023/09/30 10:00:20;;;;;;;12.07;8.07;;;28.10;57.10;;;;;;5059086;28;20976;-60
2023/09/30 10:02:48;;;;;;;11.03;7.83;;;28.10;56.50;;;;;;5055019;28;20205;-60
2023/09/30 10:05:16;;;;;;;12.70;7.07;;;28.20;56.60;;;;;;5055865;28;20213;-59
2023/09/30 10:08:06;;;;;;;12.33;7.67;;;28.20;56.90;;;;;;5059136;28;20550;-61
2023/09/30 10:10:40;;;;;;;10.77;7.80;;;28.30;56.90;;;;;;5063185;28;20205;-61
2023/09/30 10:13:07;;;;;;;15.03;8.90;;;28.40;56.20;;;;;;5053710;28;20630;-61
2023/09/30 10:15:35;;;;;;;10.13;8.27;;;28.50;56.00;;;;;;5055930;28;20641;-61
2023/09/30 10:18:11;;;;;;;13.17;8.60;;;28.50;55.90;;;;;;5051531;28;20694;-61
2023/09/30 10:20:48;;;;;;;14.80;9.17;;;28.60;55.50;;;;;;5064711;28;20568;-61
2023/09/30 10:23:24;;;;;;;15.97;10.67;;;28.70;55.40;;;;;;5060638;28;20224;-61
2023/09/30 10:26:15;;;;;;;13.57;9.60;;;28.80;54.50;;;;;;5056984;28;20213;-62
2023/09/30 10:28:49;;;;;;;17.27;9.33;;;28.80;54.30;;;;;;5061318;28;20225;-61
2023/09/30 10:31:17;;;;;;;13.53;8.97;;;28.80;54.30;;;;;;5049663;28;20221;-61
2023/09/30 10:34:00;;;;;;;15.33;9.30;;;28.90;54.40;;;;;;5053229;28;20679;-61
2023/09/30 10:36:32;;;;;;;13.43;9.10;;;28.90;53.20;;;;;;5054874;28;20202;-61
2023/09/30 10:39:00;;;;;;;16.13;9.87;;;28.90;53.50;;;;;;5045814;28;20296;-61
2023/09/30 10:41:39;;;;;;;15.37;9.10;;;29.00;53.50;;;;;;5056567;28;20209;-62
2023/09/30 10:44:25;;;;;;;11.27;9.37;;;29.00;53.60;;;;;;5067187;28;20258;-62
2023/09/30 10:46:57;;;;;;;13.33;9.40;;;29.10;53.50;;;;;;5048475;28;20604;-62
2023/09/30 10:49:24;;;;;;;14.60;8.70;;;29.20;53.10;;;;;;5048262;28;20708;-62
2023/09/30 10:52:02;;;;;;;22.67;9.07;;;29.30;53.30;;;;;;5047738;28;20255;-61
2023/09/30 10:54:31;;;;;;;22.70;10.43;;;29.20;53.40;;;;;;5054485;28;20687;-62
2023/09/30 10:57:00;;;;;;;13.63;9.77;;;29.20;53.00;;;;;;5044034;28;20269;-62
2023/09/30 10:59:32;;;;;;;10.97;8.70;;;29.10;53.50;;;;;;5055422;28;20681;-61
2023/09/30 11:01:59;;;;;;;15.43;9.80;;;28.90;54.00;;;;;;5056740;28;20202;-61
2023/09/30 11:04:29;;;;;;;15.70;9.27;;;28.80;54.20;;;;;;5043916;28;20210;-61
2023/09/30 11:06:58;;;;;;;14.90;9.87;;;28.80;53.70;;;;;;5051028;28;20198;-61
2023/09/30 11:09:26;;;;;;;17.50;10.87;;;28.80;53.20;;;;;;5050416;28;21432;-61
2023/09/30 11:11:54;;;;;;;15.87;9.17;;;28.80;52.00;;;;;;5059110;28;20204;-61
2023/09/30 11:14:22;;;;;;;10.27;9.27;;;28.80;52.20;;;;;;5049733;28;20649;-61
2023/09/30 11:16:56;;;;;;;13.73;9.33;;;28.90;52.40;;;;;;5064771;28;20543;-61
2023/09/30 11:19:24;;;;;;;16.80;9.53;;;29.10;52.20;;;;;;5054163;28;20215;-61
2023/09/30 11:21:54;;;;;;;13.97;7.93;;;29.30;51.70;;;;;;5055422;28;20238;-62
2023/09/30 11:24:23;;;;;;;9.17;7.50;;;29.40;51.90;;;;;;5059032;28;20577;-61
2023/09/30 11:26:53;;;;;;;11.27;7.90;;;29.50;52.40;;;;;;5055745;28;20614;-61
2023/09/30 11:29:21;;;;;;;8.57;7.67;;;29.60;52.40;;;;;;5054654;28;20289;-61
2023/09/30 11:31:50;;;;;;;16.50;7.70;;;29.70;52.20;;;;;;5056063;28;20230;-61
2023/09/30 11:34:19;;;;;;;11.13;7.77;;;29.70;51.90;;;;;;5055232;28;20213;-61
2023/09/30 11:36:54;;;;;;;12.93;8.47;;;29.60;51.90;;;;;;5060669;28;20256;-62
2023/09/30 11:39:29;;;;;;;12.10;8.43;;;29.50;52.10;;;;;;5063742;28;20234;-61
2023/09/30 11:41:57;;;;;;;9.70;7.83;;;29.50;52.50;;;;;;5055926;28;20680;-61
2023/09/30 11:44:26;;;;;;;13.97;7.50;;;29.40;52.10;;;;;;5061510;28;20193;-61
2023/09/30 11:46:59;;;;;;;14.30;8.10;;;29.50;51.90;;;;;;5059963;28;20241;-61
2023/09/30 11:49:40;;;;;;;15.97;7.57;;;29.60;51.60;;;;;;5052699;28;20209;-62
2023/09/30 11:52:09;;;;;;;11.87;7.50;;;29.70;51.70;;;;;;5057328;28;20954;-62
2023/09/30 11:54:39;;;;;;;17.87;8.33;;;29.80;51.40;;;;;;5054847;28;20210;-61
2023/09/30 11:57:09;;;;;;;17.33;8.47;;;29.90;50.90;;;;;;5054217;28;20538;-61
2023/09/30 11:59:41;;;;;;;13.37;8.30;;;30.00;49.90;;;;;;5060099;28;20685;-61
2023/09/30 12:02:09;;;;;;;21.53;8.10;;;30.10;49.20;;;;;;5056526;28;20331;-61
2023/09/30 12:04:44;;;;;;;15.33;7.30;;;30.10;48.50;;;;;;5055666;28;20653;-62
2023/09/30 12:07:12;;;;;;;7.87;6.03;;;30.10;48.70;;;;;;5054048;28;20199;-62
2023/09/30 12:09:40;;;;;;;11.67;6.37;;;30.20;48.90;;;;;;5062391;28;20202;-61
2023/09/30 12:12:14;;;;;;;10.83;7.03;;;30.20;49.20;;;;;;5050215;28;20286;-61
2023/09/30 12:14:41;;;;;;;15.07;7.00;;;30.30;49.20;;;;;;5052535;28;20226;-61
2023/09/30 12:17:13;;;;;;;12.90;6.80;;;30.30;48.70;;;;;;5052994;28;20206;-61
2023/09/30 12:19:41;;;;;;;18.33;7.27;;;30.40;48.30;;;;;;5051880;28;20209;-61
2023/09/30 12:22:10;;;;;;;11.00;6.63;;;30.40;48.00;;;;;;5045637;28;20211;-61
2023/09/30 12:24:37;;;;;;;10.33;6.93;;;30.40;48.30;;;;;;5056774;28;20205;-61
2023/09/30 12:27:04;;;;;;;13.37;6.73;;;30.40;48.30;;;;;;5056038;28;20282;-62
2023/09/30 12:29:32;;;;;;;7.73;6.37;;;30.40;47.00;;;;;;5054473;28;20199;-62
2023/09/30 12:32:00;;;;;;;12.50;6.10;;;30.40;46.70;;;;;;5049567;28;20202;-62
2023/09/30 12:34:28;;;;;;;8.40;5.90;;;30.40;47.30;;;;;;5058622;28;20220;-62
2023/09/30 12:36:59;;;;;;;8.07;5.77;;;30.40;47.60;;;;;;5052424;28;20553;-61
2023/09/30 12:39:30;;;;;;;8.47;4.83;;;30.50;47.50;;;;;;5056586;28;20305;-62
2023/09/30 12:41:57;;;;;;;10.07;5.60;;;30.50;47.30;;;;;;5062022;28;20211;-61